Time;durP1;ratioP1;P1;durP2;ratioP2;P2;SDS_P1;SDS_P2;PMS_P1;PMS_P2;Temp;Humidity;BMP_temperature;BMP_pressure;BME280_temperature;BME280_humidity;BME280_pressure;Samples;Min_cycle;Max_cycle;Signal;HPM_P1;HPM_P2
2022/06/02 00:02:24;;;;;;;5.30;4.90;;;;;;;14.88;68.22;100369.74;108183;1282;23717;-77
2022/06/02 00:05:50;;;;;;;6.10;4.90;;;;;;;14.86;68.28;100367.52;107674;1282;21996;-77
2022/06/02 00:08:41;;;;;;;6.50;5.40;;;;;;;14.84;68.71;100367.22;108058;1282;22004;-77
2022/06/02 00:11:29;;;;;;;5.80;5.10;;;;;;;14.85;68.85;100354.50;108093;1276;21992;-77
2022/06/02 00:14:55;;;;;;;8.60;5.70;;;;;;;14.84;68.85;100341.27;108495;1276;22008;-78
2022/06/02 00:18:13;;;;;;;6.90;4.70;;;;;;;14.83;68.71;100334.61;107986;1277;22277;-78
2022/06/02 00:21:40;;;;;;;6.60;5.10;;;;;;;14.79;68.69;100331.55;108360;1279;21998;-78
2022/06/02 00:25:46;;;;;;;;;;;;;;;;;;;;;
2022/06/02 00:29:53;;;;;;;5.70;4.90;;;;;;;14.76;69.50;100335.30;108451;1277;22005;-78
2022/06/02 00:37:04;;;;;;;6.00;5.40;;;;;;;14.82;69.65;100373.27;106691;1294;22132;-77
2022/06/02 00:39:59;;;;;;;;;;;;;;;;;;;;;
2022/06/02 00:44:02;;;;;;;;;;;;;;;;;;;;;
2022/06/02 00:47:39;;;;;;;;;;;;;;;;;;;;;
2022/06/02 00:51:52;;;;;;;;;;;;;;;;;;;;;
2022/06/02 00:59:05;;;;;;;7.40;6.70;;;;;;;14.95;70.42;100378.67;107500;1291;22017;-76
2022/06/02 01:02:54;;;;;;;;;;;;;;;;;;;;;
2022/06/02 01:10:24;;;;;;;8.10;6.60;;;;;;;14.96;70.18;100381.45;108536;1285;22005;-78
2022/06/02 01:14:01;;;;;;;;;;;;;;;;;;;;;
2022/06/02 01:17:09;;;;;;;;;;;;;;;;;;;;;
2022/06/02 01:20:10;;;;;;;;;;;;;;;;;;;;;
2022/06/02 01:23:51;;;;;;;6.30;5.70;;;;;;;14.78;70.54;100411.61;108503;1276;23706;-77
2022/06/02 01:27:03;;;;;;;6.90;6.20;;;;;;;14.82;70.90;100409.48;109684;1282;21994;-77
2022/06/02 01:30:13;;;;;;;6.40;5.80;;;;;;;14.89;71.04;100402.39;107983;1282;22899;-77
2022/06/02 01:32:52;;;;;;;6.50;5.90;;;;;;;14.94;70.88;100401.33;107864;1282;23639;-77
2022/06/02 01:35:35;;;;;;;6.60;6.00;;;;;;;14.94;70.90;100400.38;108120;1279;21985;-78
2022/06/02 01:38:23;;;;;;;7.40;6.10;;;;;;;14.90;70.65;100406.87;108131;1279;21995;-78
2022/06/02 01:41:42;;;;;;;7.10;6.40;;;;;;;14.86;70.75;100414.88;108239;1279;21989;-78
2022/06/02 01:44:56;;;;;;;6.40;5.80;;;;;;;14.79;70.89;100422.88;108505;1273;22926;-78
2022/06/02 01:48:08;;;;;;;6.50;5.80;;;;;;;14.72;71.05;100431.73;109017;1273;23075;-78
2022/06/02 01:51:29;;;;;;;8.50;7.00;;;;;;;14.68;71.32;100441.04;108572;1267;21986;-78
2022/06/02 01:55:01;;;;;;;;;;;;;;;14.70;71.63;100439.21;109948;1259;22016;-77
2022/06/02 01:58:32;;;;;;;11.20;10.30;;;;;;;14.59;71.71;100423.95;108855;1270;23239;-77
2022/06/02 02:02:01;;;;;;;;;;;;;;;;;;;;;
2022/06/02 02:06:02;;;;;;;13.60;11.10;;;;;;;14.36;71.44;100422.02;109155;1263;23582;-78
2022/06/02 02:10:32;;;;;;;;;;;;;;;;;;;;;
2022/06/02 02:14:26;;;;;;;;;;;;;;;;;;;;;
2022/06/02 02:18:12;;;;;;;11.60;9.70;;;;;;;14.21;72.20;100417.84;110367;1270;22098;-78
2022/06/02 02:22:45;;;;;;;11.00;9.90;;;;;;;14.24;72.19;100429.64;109642;1273;22133;-78
2022/06/02 02:26:23;;;;;;;12.70;11.10;;;;;;;14.34;72.33;100449.45;109655;1272;23713;-78
2022/06/02 02:29:28;;;;;;;65.90;60.60;;;;;;;14.40;72.08;100464.72;109171;1279;22008;-78
2022/06/02 02:32:07;;;;;;;65.30;60.50;;;;;;;14.43;72.22;100462.75;108449;1277;22021;-78
2022/06/02 02:35:27;;;;;;;62.10;57.40;;;;;;;14.49;72.25;100463.77;108067;1279;23073;-79
2022/06/02 02:38:21;;;;;;;60.20;55.50;;;;;;;14.63;71.96;100464.55;107703;1284;544330;-76
2022/06/02 02:41:03;;;;;;;73.40;68.00;;;;;;;14.62;71.74;100458.31;110083;1258;23036;-78
2022/06/02 02:44:17;;;;;;;53.70;49.50;;;;;;;14.62;71.73;100450.70;111110;1257;23107;-79
2022/06/02 02:48:11;;;;;;;40.40;37.10;;;;;;;14.56;71.32;100447.75;111063;1260;22006;-78
2022/06/02 02:52:23;;;;;;;31.90;29.20;;;;;;;14.31;70.95;100430.57;104951;1270;5720724;-77
2022/06/02 02:55:19;;;;;;;29.00;26.20;;;;;;;14.19;70.88;100428.94;108868;1271;23663;-76
2022/06/02 02:58:08;;;;;;;31.00;28.10;;;;;;;14.09;70.96;100432.02;108374;1276;22035;-77
2022/06/02 03:00:59;;;;;;;30.60;27.90;;;;;;;14.06;71.38;100435.20;108473;1276;22022;-77
2022/06/02 03:09:19;;;;;;;26.30;23.80;;;;;;;14.05;71.78;100441.70;109357;1273;22878;-78
2022/06/02 03:13:02;;;;;;;24.50;22.40;;;;;;;14.06;71.73;100451.42;109338;1279;22020;-77
2022/06/02 03:16:08;;;;;;;25.90;23.70;;;;;;;14.11;71.81;100455.35;109112;1279;22986;-79
2022/06/02 03:24:32;;;;;;;;;;;;;;;;;;;;;
2022/06/02 03:32:50;;;;;;;;;;;;;;;14.31;71.54;100512.46;108522;1294;22040;-76
2022/06/02 03:35:51;;;;;;;12.20;11.00;;;;;;;14.29;71.82;100519.59;107531;1293;22011;-78
2022/06/02 03:38:40;;;;;;;13.60;10.80;;;;;;;14.35;71.77;100522.90;106755;1294;23091;-77
2022/06/02 03:41:41;;;;;;;8.50;7.80;;;;;;;14.42;71.59;100519.55;107230;1290;22009;-77
2022/06/02 03:44:18;;;;;;;9.30;6.90;;;;;;;14.47;71.48;100518.81;107291;1291;22003;-78
2022/06/02 03:48:12;;;;;;;;;;;;;;;;;;;;;
2022/06/02 03:55:27;;;;;;;7.50;6.60;;;;;;;14.47;71.64;100531.20;107718;1288;23607;-79
2022/06/02 04:03:02;;;;;;;11.70;9.00;;;;;;;14.54;71.67;100530.15;109770;1267;21979;-78
2022/06/02 04:06:09;;;;;;;9.10;8.20;;;;;;;14.53;71.39;100525.67;109069;1267;22023;-77
2022/06/02 04:09:42;;;;;;;8.60;7.70;;;;;;;14.50;71.39;100543.23;109271;1267;21989;-77
2022/06/02 04:16:59;;;;;;;;;;;;;;;;;;;;;
2022/06/02 04:23:05;;;;;;;9.60;7.10;;;;;;;14.49;71.93;100583.73;108845;1273;24289;-77
2022/06/02 04:26:02;;;;;;;8.00;7.00;;;;;;;14.50;71.67;100597.63;109114;1269;21960;-77
2022/06/02 04:29:48;;;;;;;;;;;;;;;;;;;;;
2022/06/02 04:39:43;;;;;;;6.90;6.20;;;;;;;14.49;71.31;100614.77;110699;1262;22052;-77
2022/06/02 04:42:44;;;;;;;6.80;6.10;;;;;;;14.51;71.33;100621.40;109386;1267;22024;-77
2022/06/02 04:46:20;;;;;;;;;;;;;;;;;;;;;
2022/06/02 04:50:22;;;;;;;5.60;5.10;;;;;;;14.52;71.04;100625.34;108545;1273;22877;-76
2022/06/02 04:54:36;;;;;;;5.00;4.50;;;;;;;14.50;70.94;100632.17;108773;1273;21990;-77
2022/06/02 04:58:51;;;;;;;;;;;;;;;;;;;;;
2022/06/02 05:02:18;;;;;;;7.20;5.70;;;;;;;14.40;70.65;100664.63;109407;1273;21977;-77
2022/06/02 05:06:23;;;;;;;6.70;5.30;;;;;;;14.34;70.42;100679.11;109408;1276;21985;-76
2022/06/02 05:19:50;;;;;;;6.80;6.00;;;;;;;15.64;65.36;100696.20;107847;1285;548174;-77
2022/06/02 05:23:19;;;;;;;7.40;6.40;;;;;;;15.78;63.48;100705.46;109340;1262;308917;-77
2022/06/02 05:27:12;;;;;;;4.20;3.40;;;;;;;15.15;64.64;100704.63;109579;1263;22281;-78
2022/06/02 05:31:33;;;;;;;;;;;;;;;;;;;;;
2022/06/02 05:34:59;;;;;;;4.80;3.20;;;;;;;14.44;66.37;100688.44;109898;1263;22074;-77
2022/06/02 05:38:37;;;;;;;6.20;5.60;;;;;;;14.34;67.21;100684.39;108972;1270;22219;-77
2022/06/02 05:42:13;;;;;;;5.70;5.00;;;;;;;14.28;67.35;100687.79;108908;1269;22012;-78
2022/06/02 05:45:49;;;;;;;4.00;2.50;;;;;;;14.24;67.71;100685.80;108961;1270;22123;-78
2022/06/02 05:49:00;;;;;;;2.80;2.40;;;;;;;14.26;68.25;100688.47;108604;1272;23638;-78
2022/06/02 05:51:46;;;;;;;3.60;2.50;;;;;;;14.28;68.42;100693.89;108462;1275;23756;-77
2022/06/02 05:55:20;;;;;;;4.20;2.80;;;;;;;14.30;68.44;100694.99;108366;1279;22053;-78
2022/06/02 05:58:33;;;;;;;4.50;2.60;;;;;;;14.32;68.53;100708.02;108393;1279;22236;-77
2022/06/02 06:01:32;;;;;;;2.80;2.30;;;;;;;14.35;68.57;100703.12;108157;1280;22117;-77
2022/06/02 06:04:27;;;;;;;26.90;24.00;;;;;;;14.36;68.39;100690.58;108422;1279;21997;-76
2022/06/02 06:07:20;;;;;;;11.60;10.40;;;;;;;14.40;68.53;100688.34;108379;1279;25054;-76
2022/06/02 06:10:12;;;;;;;8.70;7.60;;;;;;;14.46;68.68;100687.32;108553;1267;22173;-77
2022/06/02 06:13:03;;;;;;;5.30;4.30;;;;;;;14.50;68.53;100687.55;108943;1267;22007;-75
2022/06/02 06:16:06;;;;;;;6.20;3.70;;;;;;;14.55;68.51;100688.86;109318;1265;21987;-78
2022/06/02 06:19:37;;;;;;;;;;;;;;;;;;;;;
2022/06/02 06:23:14;;;;;;;4.30;2.10;;;;;;;14.56;67.28;100686.77;109502;1265;21986;-75
2022/06/02 06:26:02;;;;;;;5.50;1.90;;;;;;;14.56;66.98;100671.40;109575;1260;22066;-74
2022/06/02 06:29:11;;;;;;;5.90;2.10;;;;;;;14.54;66.51;100671.23;109824;1261;22022;-75
2022/06/02 06:32:35;;;;;;;4.20;2.10;;;;;;;14.57;66.31;100678.73;110238;1256;23687;-75
2022/06/02 06:35:18;;;;;;;3.20;1.50;;;;;;;14.56;65.57;100686.55;109471;1265;23596;-73
2022/06/02 06:38:09;;;;;;;3.00;1.70;;;;;;;14.65;66.05;100691.92;109249;1266;23075;-74
2022/06/02 06:40:44;;;;;;;3.00;2.10;;;;;;;15.11;68.19;100697.59;109208;1265;23870;-73
2022/06/02 06:44:07;;;;;;;2.80;1.30;;;;;;;15.81;69.06;100698.73;109297;1264;21979;-72
2022/06/02 06:47:12;;;;;;;4.10;1.50;;;;;;;16.64;66.41;100699.06;108873;1270;23739;-74
2022/06/02 06:50:05;;;;;;;2.50;1.50;;;;;;;17.19;62.77;100703.48;108354;1279;22006;-74
2022/06/02 06:53:08;;;;;;;1.80;1.00;;;;;;;17.67;61.04;100712.17;108449;1273;22957;-73
2022/06/02 06:56:26;;;;;;;1.90;1.50;;;;;;;18.19;58.97;100708.23;108845;1270;21993;-73
2022/06/02 06:59:29;;;;;;;2.20;1.30;;;;;;;18.60;56.54;100712.20;108682;1273;22132;-73
2022/06/02 07:02:39;;;;;;;3.50;1.20;;;;;;;18.63;54.00;100717.13;108687;1273;24417;-72
2022/06/02 07:05:25;;;;;;;1.80;1.60;;;;;;;18.72;54.32;100715.58;108687;1273;22838;-74
2022/06/02 07:08:33;;;;;;;2.60;1.70;;;;;;;19.10;54.96;100721.24;108890;1266;24392;-73
2022/06/02 07:12:50;;;;;;;3.80;1.60;;;;;;;19.61;54.06;100719.55;109945;1260;23715;-72
2022/06/02 07:14:14;;;;;;;3.20;1.60;;;;;;;20.05;52.29;100709.56;109614;1263;22355;-72
2022/06/02 07:16:55;;;;;;;1.70;1.50;;;;;;;20.38;50.69;100712.77;109663;1254;23064;-72
2022/06/02 07:19:38;;;;;;;2.60;1.50;;;;;;;20.66;49.92;100711.29;110446;1254;21957;-72
2022/06/02 07:22:33;;;;;;;2.40;1.80;;;;;;;20.91;48.85;100704.16;110272;1257;21965;-73
2022/06/02 07:25:26;;;;;;;2.10;1.80;;;;;;;21.17;48.47;100708.50;110514;1254;23002;-73
2022/06/02 07:28:13;;;;;;;2.60;2.10;;;;;;;21.49;48.01;100718.20;109414;1262;21966;-81
2022/06/02 07:31:15;;;;;;;2.20;1.80;;;;;;;21.85;47.33;100722.83;109633;1261;23072;-73
2022/06/02 07:34:18;;;;;;;2.80;2.00;;;;;;;22.08;45.49;100723.27;110319;1256;22041;-74
2022/06/02 07:37:27;;;;;;;2.30;1.80;;;;;;;22.20;45.05;100721.08;110298;1256;22111;-72
2022/06/02 07:40:33;;;;;;;3.10;1.60;;;;;;;22.38;44.97;100726.42;110163;1258;21978;-74
2022/06/02 07:43:18;;;;;;;2.20;1.80;;;;;;;22.55;44.70;100728.23;109762;1260;23840;-74
2022/06/02 07:45:51;;;;;;;2.10;1.80;;;;;;;22.75;43.94;100727.41;109787;1262;23599;-72
2022/06/02 07:48:47;;;;;;;3.80;2.00;;;;;;;22.88;43.62;100727.33;109901;1262;23052;-75
2022/06/02 07:51:41;;;;;;;3.10;2.30;;;;;;;23.05;43.53;100731.60;109471;1263;22454;-73
2022/06/02 07:54:32;;;;;;;4.20;2.30;;;;;;;23.29;43.75;100732.95;109485;1263;21969;-73
2022/06/02 07:57:41;;;;;;;4.80;3.30;;;;;;;23.56;43.31;100731.64;109259;1263;22025;-73
2022/06/02 08:00:27;;;;;;;3.70;2.10;;;;;;;23.80;42.71;100733.44;109650;1263;22062;-73
2022/06/02 08:03:37;;;;;;;2.20;2.00;;;;;;;23.99;41.56;100738.92;109579;1261;21976;-72
2022/06/02 08:06:13;;;;;;;2.90;2.00;;;;;;;24.10;41.02;100742.16;109152;1267;23681;-73
2022/06/02 08:09:36;;;;;;;4.50;2.70;;;;;;;24.11;40.02;100748.66;109189;1267;22091;-73
2022/06/02 08:12:29;;;;;;;3.50;2.20;;;;;;;24.07;40.26;100751.29;109165;1266;23055;-77
2022/06/02 08:15:29;;;;;;;3.30;2.20;;;;;;;23.89;39.50;100753.13;109179;1266;22090;-73
2022/06/02 08:18:24;;;;;;;3.00;2.10;;;;;;;23.78;40.39;100758.78;109211;1262;21997;-76
2022/06/02 08:21:17;;;;;;;3.30;2.30;;;;;;;23.85;40.76;100756.25;109839;1262;23670;-76
2022/06/02 08:24:23;;;;;;;2.80;2.30;;;;;;;23.98;40.27;100761.36;109808;1256;22296;-76
2022/06/02 08:27:43;;;;;;;3.20;2.20;;;;;;;23.76;39.14;100763.71;110499;1253;23835;-76
2022/06/02 08:30:35;;;;;;;4.70;2.60;;;;;;;23.76;39.57;100766.79;110336;1254;22728;-77
2022/06/02 08:33:38;;;;;;;3.20;2.70;;;;;;;23.46;38.32;100769.54;110518;1254;23622;-76
2022/06/02 08:36:30;;;;;;;9.50;7.90;;;;;;;22.89;38.85;100773.83;110374;1256;23028;-76
2022/06/02 08:39:37;;;;;;;4.90;4.40;;;;;;;22.48;39.97;100774.02;109845;1259;21994;-76
2022/06/02 08:42:33;;;;;;;3.50;2.90;;;;;;;22.24;40.89;100780.96;109970;1260;22374;-74
2022/06/02 08:45:39;;;;;;;6.90;5.30;;;;;;;21.93;40.35;100782.58;110164;1259;22428;-76
2022/06/02 08:48:48;;;;;;;7.60;6.10;;;;;;;21.65;41.84;100784.30;109421;1265;23114;-76
2022/06/02 08:52:06;;;;;;;10.50;8.30;;;;;;;21.93;42.05;100785.70;109375;1265;21968;-77
2022/06/02 08:55:19;;;;;;;5.40;4.60;;;;;;;22.14;40.77;100790.89;108857;1270;21989;-76
2022/06/02 08:58:52;;;;;;;5.30;4.40;;;;;;;21.98;39.91;100793.25;108943;1270;22043;-76
2022/06/02 09:02:22;;;;;;;8.00;4.70;;;;;;;22.08;40.60;100791.65;108431;1276;22208;-75
2022/06/02 09:05:45;;;;;;;5.90;5.30;;;;;;;22.39;40.29;100788.34;108280;1277;21970;-76
2022/06/02 09:08:49;;;;;;;2.90;2.40;;;;;;;22.39;39.55;100797.13;109161;1267;22026;-76
2022/06/02 09:11:56;;;;;;;5.80;3.40;;;;;;;22.64;39.94;100799.35;109080;1268;23049;-76
2022/06/02 09:15:21;;;;;;;3.00;2.70;;;;;;;23.03;39.47;100800.75;108678;1273;23271;-76
2022/06/02 09:18:16;;;;;;;5.30;3.40;;;;;;;23.27;38.20;100798.20;109025;1269;21964;-76
2022/06/02 09:20:53;;;;;;;6.30;4.40;;;;;;;23.24;37.32;100802.40;109140;1270;22095;-76
2022/06/02 09:23:46;;;;;;;6.20;4.90;;;;;;;23.09;37.20;100802.60;108888;1270;23064;-75
2022/06/02 09:26:34;;;;;;;;;;;;;;;23.12;38.31;100808.27;108785;1271;22172;-75
2022/06/02 09:29:38;;;;;;;3.50;3.10;;;;;;;23.37;38.72;100812.68;108789;1266;23034;-77
2022/06/02 09:32:44;;;;;;;5.30;4.30;;;;;;;23.59;37.26;100812.59;109060;1267;21973;-77
2022/06/02 09:35:42;;;;;;;5.10;3.50;;;;;;;23.73;36.91;100816.15;109282;1266;22448;-76
2022/06/02 09:38:32;;;;;;;4.60;2.80;;;;;;;23.91;36.93;100816.89;109146;1263;22976;-76
2022/06/02 09:41:32;;;;;;;2.50;2.00;;;;;;;24.14;36.12;100816.94;109603;1262;21968;-76
2022/06/02 09:44:24;;;;;;;2.50;2.10;;;;;;;24.33;35.35;100813.50;109642;1260;21986;-76
2022/06/02 09:47:44;;;;;;;4.90;3.40;;;;;;;24.28;34.34;100823.29;110872;1250;21968;-77
2022/06/02 09:50:26;;;;;;;11.40;5.60;;;;;;;23.85;34.50;100823.08;110499;1256;21965;-75
2022/06/02 09:53:44;;;;;;;6.20;4.60;;;;;;;23.40;34.95;100825.41;110517;1256;22530;-77
2022/06/02 09:56:48;;;;;;;3.30;2.80;;;;;;;22.99;35.46;100827.94;110326;1256;22991;-75
2022/06/02 09:59:36;;;;;;;3.00;2.20;;;;;;;22.55;36.41;100835.64;109817;1262;23582;-76
2022/06/02 10:02:40;;;;;;;8.80;4.70;;;;;;;22.52;37.45;100839.83;109845;1262;22013;-76
2022/06/02 10:06:12;;;;;;;3.10;2.60;;;;;;;22.66;36.77;100840.70;108945;1267;21991;-77
2022/06/02 10:09:39;;;;;;;7.40;4.60;;;;;;;22.65;35.73;100839.44;108694;1270;22855;-76
2022/06/02 10:12:55;;;;;;;2.90;2.10;;;;;;;22.14;35.35;100839.80;108925;1270;21994;-76
2022/06/02 10:15:42;;;;;;;6.10;3.80;;;;;;;21.95;36.97;100840.44;108791;1270;21992;-76
2022/06/02 10:18:35;;;;;;;3.30;2.50;;;;;;;22.13;37.37;100838.38;108942;1270;24508;-76
2022/06/02 10:21:20;;;;;;;3.50;1.80;;;;;;;22.25;36.60;100836.63;108873;1270;23589;-76
2022/06/02 10:24:08;;;;;;;3.10;1.80;;;;;;;22.23;36.47;100836.58;109196;1263;24333;-76
2022/06/02 10:27:01;;;;;;;8.40;5.80;;;;;;;22.26;36.68;100839.52;109408;1263;22032;-77
2022/06/02 10:30:33;;;;;;;5.40;4.30;;;;;;;22.36;36.94;100842.65;109369;1265;22061;-75
2022/06/02 10:33:44;;;;;;;6.90;2.30;;;;;;;22.47;36.60;100844.95;109166;1264;21969;-76
2022/06/02 10:37:07;;;;;;;3.50;2.80;;;;;;;22.33;36.54;100844.84;109644;1259;23622;-76
2022/06/02 10:39:40;;;;;;;5.10;2.90;;;;;;;22.12;36.43;100841.04;109537;1263;23668;-76
2022/06/02 10:42:35;;;;;;;4.80;3.70;;;;;;;21.95;36.77;100842.75;109542;1263;22927;-76
2022/06/02 10:45:41;;;;;;;5.80;3.90;;;;;;;21.76;37.08;100841.73;109703;1258;23756;-76
2022/06/02 10:48:21;;;;;;;5.30;3.40;;;;;;;21.67;37.79;100843.55;110329;1257;22070;-77
2022/06/02 10:51:38;;;;;;;5.70;2.50;;;;;;;21.54;37.67;100843.91;110439;1255;23071;-76
2022/06/02 10:54:54;;;;;;;4.80;3.30;;;;;;;21.20;37.64;100844.73;110301;1256;22252;-76
2022/06/02 10:57:53;;;;;;;3.50;2.50;;;;;;;21.05;37.98;100843.18;110148;1259;21992;-76
2022/06/02 11:01:05;;;;;;;2.40;1.80;;;;;;;21.06;38.38;100839.36;110130;1260;23583;-76
2022/06/02 11:04:13;;;;;;;3.40;1.50;;;;;;;21.18;38.22;100834.42;110180;1259;23069;-75
2022/06/02 11:07:32;;;;;;;4.70;3.00;;;;;;;21.21;38.01;100845.09;109985;1260;23690;-76
2022/06/02 11:10:31;;;;;;;2.40;1.10;;;;;;;21.22;37.76;100851.33;110005;1259;22335;-76
2022/06/02 11:13:39;;;;;;;2.00;1.30;;;;;;;21.13;37.34;100848.40;110000;1258;22235;-75
2022/06/02 11:16:36;;;;;;;1.50;1.00;;;;;;;21.04;36.98;100849.44;109079;1267;22073;-75
2022/06/02 11:19:24;;;;;;;1.80;1.10;;;;;;;20.98;37.17;100851.40;109203;1267;21968;-75
2022/06/02 11:22:26;;;;;;;1.40;1.10;;;;;;;20.99;37.39;100851.71;108741;1273;22139;-76
2022/06/02 11:25:45;;;;;;;4.00;1.50;;;;;;;21.01;37.36;100855.84;108752;1273;21976;-76
2022/06/02 11:28:49;;;;;;;2.00;1.10;;;;;;;20.97;37.38;100848.64;108683;1273;23080;-75
2022/06/02 11:32:09;;;;;;;2.20;1.30;;;;;;;21.01;37.87;100850.75;108883;1268;23626;-77
2022/06/02 11:35:15;;;;;;;4.10;1.80;;;;;;;21.09;37.71;100849.54;108778;1270;22086;-75
2022/06/02 11:38:18;;;;;;;2.60;1.20;;;;;;;21.17;37.35;100849.48;108813;1270;21991;-76
2022/06/02 11:41:24;;;;;;;1.90;1.10;;;;;;;21.22;37.51;100846.52;109007;1270;24106;-77
2022/06/02 11:43:53;;;;;;;2.00;1.00;;;;;;;21.28;37.76;100849.59;108684;1273;22068;-76
2022/06/02 11:46:53;;;;;;;2.70;1.80;;;;;;;21.36;37.44;100849.23;108782;1269;23068;-76
2022/06/02 11:50:06;;;;;;;2.40;1.20;;;;;;;21.22;36.91;100847.25;108982;1270;22051;-76
2022/06/02 11:52:56;;;;;;;3.00;1.40;;;;;;;21.09;37.14;100839.11;108381;1276;21995;-76
2022/06/02 11:55:55;;;;;;;3.40;1.70;;;;;;;21.06;37.50;100837.51;108468;1277;22582;-77
2022/06/02 11:59:20;;;;;;;2.20;0.90;;;;;;;21.03;37.52;100843.45;108492;1276;23692;-75
2022/06/02 12:02:00;;;;;;;2.10;0.80;;;;;;;20.96;37.12;100842.54;108600;1270;22053;-75
2022/06/02 12:05:17;;;;;;;2.10;0.80;;;;;;;20.88;36.66;100849.45;108570;1276;22176;-75
2022/06/02 12:08:04;;;;;;;1.40;0.70;;;;;;;20.73;36.23;100852.86;108421;1276;21992;-76
2022/06/02 12:11:10;;;;;;;3.30;0.80;;;;;;;20.70;36.50;100850.38;108540;1271;22075;-76
2022/06/02 12:14:09;;;;;;;1.60;0.80;;;;;;;20.82;36.99;100849.27;108753;1273;22056;-75
2022/06/02 12:17:03;;;;;;;1.90;1.00;;;;;;;20.87;36.75;100846.04;108711;1273;21985;-74
2022/06/02 12:19:44;;;;;;;1.20;1.00;;;;;;;20.91;36.96;100843.27;108716;1273;24392;-77
2022/06/02 12:22:45;;;;;;;1.20;0.90;;;;;;;20.98;37.17;100842.48;108879;1270;21990;-78
2022/06/02 12:25:39;;;;;;;3.50;1.20;;;;;;;21.01;37.16;100842.03;109207;1264;23131;-76
2022/06/02 12:28:51;;;;;;;1.90;1.40;;;;;;;21.05;37.25;100839.80;109570;1256;23893;-77
2022/06/02 12:31:36;;;;;;;1.50;0.90;;;;;;;21.06;37.32;100839.65;110664;1249;21962;-75
2022/06/02 12:34:47;;;;;;;1.40;1.00;;;;;;;21.03;37.34;100841.95;110985;1249;21964;-76
2022/06/02 12:38:00;;;;;;;2.30;1.20;;;;;;;21.03;37.23;100840.64;110515;1256;22301;-77
2022/06/02 12:40:58;;;;;;;1.60;1.20;;;;;;;21.02;37.43;100845.45;110324;1257;23700;-77
2022/06/02 12:44:19;;;;;;;1.60;1.00;;;;;;;21.02;37.13;100848.66;110414;1258;21972;-76
2022/06/02 12:47:06;;;;;;;1.00;0.70;;;;;;;21.02;37.52;100852.77;110344;1256;23034;-84
2022/06/02 12:50:11;;;;;;;3.20;1.30;;;;;;;21.06;37.67;100855.98;110587;1256;25136;-83
2022/06/02 12:53:49;;;;;;;1.20;0.90;;;;;;;21.04;37.46;100861.86;110521;1256;22005;-80
2022/06/02 12:56:55;;;;;;;1.00;0.70;;;;;;;20.93;36.80;100865.17;109902;1262;22020;-76
2022/06/02 13:00:13;;;;;;;4.70;0.90;;;;;;;20.86;36.33;100868.69;109188;1268;23067;-76
2022/06/02 13:03:37;;;;;;;3.30;1.40;;;;;;;20.85;36.29;100868.44;109033;1268;22050;-79
2022/06/02 13:06:49;;;;;;;1.60;0.50;;;;;;;20.83;36.11;100866.83;108936;1271;22100;-76
2022/06/02 13:10:15;;;;;;;2.70;0.70;;;;;;;20.82;36.11;100867.73;109089;1268;23171;-76
2022/06/02 13:13:40;;;;;;;2.10;1.00;;;;;;;20.69;36.09;100870.66;108562;1274;22049;-76
2022/06/02 13:16:44;;;;;;;1.90;0.90;;;;;;;20.57;36.55;100870.05;109139;1267;21995;-76
2022/06/02 13:19:41;;;;;;;2.20;1.10;;;;;;;20.55;37.00;100870.31;108788;1271;22974;-76
2022/06/02 13:22:40;;;;;;;1.80;0.90;;;;;;;20.62;37.62;100872.80;108768;1271;21984;-75
2022/06/02 13:26:17;;;;;;;1.70;1.00;;;;;;;20.69;37.66;100879.06;108837;1271;23698;-77
2022/06/02 13:29:54;;;;;;;2.00;1.70;;;;;;;20.69;37.34;100875.27;108795;1271;22121;-78
2022/06/02 13:32:40;;;;;;;2.60;1.90;;;;;;;20.67;37.25;100882.83;108402;1277;23074;-77
2022/06/02 13:36:11;;;;;;;1.60;1.00;;;;;;;20.75;36.70;100886.27;107768;1283;544142;-76
2022/06/02 13:39:31;;;;;;;2.70;1.00;;;;;;;20.70;36.50;100888.27;109732;1262;23012;-76
2022/06/02 13:42:21;;;;;;;4.90;1.50;;;;;;;20.63;36.58;100891.34;109396;1265;21970;-75
2022/06/02 13:45:12;;;;;;;6.20;1.50;;;;;;;20.62;36.83;100891.96;109676;1263;22747;-75
2022/06/02 13:49:01;;;;;;;1.60;0.90;;;;;;;20.63;36.74;100892.90;110247;1256;22569;-77
2022/06/02 13:52:25;;;;;;;4.40;1.10;;;;;;;20.56;36.68;100894.33;109706;1261;21972;-76
2022/06/02 13:58:57;;;;;;;2.90;0.80;;;;;;;20.33;36.95;100894.50;108838;1273;22002;-76
2022/06/02 14:02:03;;;;;;;3.40;0.90;;;;;;;20.28;36.86;100893.14;108747;1272;21991;-77
2022/06/02 14:05:00;;;;;;;1.20;0.80;;;;;;;20.27;37.13;100890.38;108866;1272;23068;-74
2022/06/02 14:08:17;;;;;;;1.70;1.00;;;;;;;20.31;36.90;100890.05;108877;1273;21989;-76
2022/06/02 14:11:24;;;;;;;1.80;1.10;;;;;;;20.35;37.02;100889.23;108723;1273;22104;-76
2022/06/02 14:14:14;;;;;;;2.10;1.00;;;;;;;20.37;36.76;100889.56;109037;1267;22852;-74
2022/06/02 14:17:31;;;;;;;1.00;0.70;;;;;;;20.41;36.61;100893.67;109170;1267;22770;-76
2022/06/02 14:20:52;;;;;;;4.30;1.30;;;;;;;20.44;36.50;100898.98;108979;1270;24084;-77
2022/06/02 14:23:45;;;;;;;2.40;1.90;;;;;;;20.37;36.18;100894.88;108915;1267;22522;-76
2022/06/02 14:26:54;;;;;;;3.90;2.30;;;;;;;20.32;36.36;100896.74;109162;1267;21989;-75
2022/06/02 14:30:27;;;;;;;3.40;1.40;;;;;;;20.29;36.56;100899.33;109205;1266;21974;-74
2022/06/02 14:33:14;;;;;;;1.90;0.90;;;;;;;20.26;36.57;100897.15;108885;1271;22772;-76
2022/06/02 14:36:30;;;;;;;1.50;0.70;;;;;;;20.23;36.52;100899.03;108855;1272;22036;-75
2022/06/02 14:39:18;;;;;;;2.10;0.80;;;;;;;20.19;36.53;100898.61;108967;1271;23060;-76
2022/06/02 14:42:19;;;;;;;3.90;0.90;;;;;;;20.20;36.68;100902.56;108909;1271;22484;-77
2022/06/02 14:45:20;;;;;;;2.40;1.10;;;;;;;20.22;36.78;100901.64;108798;1271;22970;-76
2022/06/02 14:48:30;;;;;;;1.40;1.00;;;;;;;20.29;37.09;100896.77;108799;1271;22437;-76
2022/06/02 14:51:35;;;;;;;5.00;0.90;;;;;;;20.34;36.84;100891.89;108723;1274;22313;-76
2022/06/02 14:54:28;;;;;;;2.80;0.70;;;;;;;20.39;36.82;100893.52;108388;1279;23059;-77
2022/06/02 14:57:30;;;;;;;2.00;1.00;;;;;;;20.45;36.72;100894.98;108445;1277;22004;-76
2022/06/02 15:00:50;;;;;;;1.40;0.70;;;;;;;20.47;36.84;100891.66;108429;1274;24309;-77
2022/06/02 15:03:48;;;;;;;2.00;0.90;;;;;;;20.46;37.22;100896.50;108576;1274;22406;-76
2022/06/02 15:06:35;;;;;;;2.70;1.00;;;;;;;20.39;36.96;100894.98;108929;1268;22001;-76
2022/06/02 15:09:14;;;;;;;1.20;0.80;;;;;;;20.32;36.93;100896.48;109641;1261;22033;-76
2022/06/02 15:12:34;;;;;;;1.50;0.90;;;;;;;20.22;36.92;100897.46;109557;1264;23558;-76
2022/06/02 15:15:42;;;;;;;2.80;1.10;;;;;;;20.11;36.97;100887.86;108728;1273;22560;-76
2022/06/02 15:19:12;;;;;;;2.40;1.00;;;;;;;20.06;37.36;100886.41;108366;1278;23066;-76
2022/06/02 15:22:40;;;;;;;1.50;1.10;;;;;;;20.02;37.33;100883.22;108019;1283;23813;-76
2022/06/02 15:25:38;;;;;;;1.80;0.90;;;;;;;19.96;37.33;100889.07;107324;1288;22005;-78
2022/06/02 15:28:48;;;;;;;1.20;0.70;;;;;;;19.86;37.23;100889.22;107342;1291;22093;-75
2022/06/02 15:31:19;;;;;;;2.20;0.80;;;;;;;19.79;37.23;100888.65;107895;1281;23585;-74
2022/06/02 15:34:00;;;;;;;1.50;0.80;;;;;;;19.78;37.21;100895.73;108352;1276;22065;-74
2022/06/02 15:37:16;;;;;;;1.60;0.60;;;;;;;19.74;37.19;100897.86;108740;1274;21988;-76
2022/06/02 15:40:28;;;;;;;5.80;0.80;;;;;;;19.67;36.89;100893.83;108347;1279;22119;-76
2022/06/02 15:43:53;;;;;;;1.80;1.10;;;;;;;19.67;37.16;100897.67;107909;1282;23522;-76
2022/06/02 15:46:54;;;;;;;4.10;1.30;;;;;;;19.71;37.23;100896.11;107927;1283;22010;-75
2022/06/02 15:50:19;;;;;;;1.80;0.90;;;;;;;19.77;36.86;100897.10;108090;1282;22010;-75
2022/06/02 15:53:37;;;;;;;1.30;0.90;;;;;;;19.76;36.75;100893.82;108281;1278;22502;-76
2022/06/02 15:56:43;;;;;;;2.00;0.60;;;;;;;19.79;36.77;100899.74;108282;1276;22616;-75
2022/06/02 15:59:37;;;;;;;1.20;0.70;;;;;;;19.79;36.55;100898.63;108402;1276;23516;-75
2022/06/02 16:02:31;;;;;;;3.10;1.00;;;;;;;19.79;36.05;100898.88;108580;1270;22214;-76
2022/06/02 16:05:32;;;;;;;1.10;0.60;;;;;;;19.79;35.90;100902.64;109000;1270;23125;-75
2022/06/02 16:08:47;;;;;;;1.80;0.90;;;;;;;19.77;35.74;100900.38;108500;1276;21989;-76